Terminal Aerodrome Forecast
Issued by NWS Atlanta, GA

Home | Current Version | Previous Version | Text Only | Print | Product List | Glossary On
Versions: 1 2 3 4 5 6 7 8 9 10 11 12 13 14 15 16 17 18 19 20 21 22 23 24 25 26 27 28 29 30 31 32 33 34 35 36 37 38 39 40
000
FTUS42 KFFC 190331 AAB
TAFATL
TAF AMD
KATL 190331Z 1904/2006 30004KT P6SM SCT100 SCT180 BKN250
     FM191100 04005KT P6SM SCT010 BKN100
     FM191300 10005KT P6SM BKN015
     FM191700 14007KT P6SM BKN030
     FM192000 14008KT P6SM SCT035 BKN060
     FM200000 15009KT P6SM -SHRA SCT015 BKN030 OVC120 PROB30
      2003/2006 3SM TSRA BKN015CB=

USA.gov is the U.S. government's official web portal to all federal, state and local government web resources and services.